Time;durP1;ratioP1;P1;durP2;ratioP2;P2;SDS_P1;SDS_P2;PMS_P1;PMS_P2;Temp;Humidity;BMP_temperature;BMP_pressure;BME280_temperature;BME280_humidity;BME280_pressure;Samples;Min_cycle;Max_cycle;Signal;HPM_P1;HPM_P2
2022/08/22 00:00:50;;;;;;;4.20;2.45;;;20.20;41.90;;;23.13;31.81;97446.75;5007139;28;20052;-41
2022/08/22 00:03:58;;;;;;;4.60;3.75;;;20.20;41.60;;;23.12;31.61;97444.28;5006583;28;20413;-40
2022/08/22 00:06:38;;;;;;;4.55;2.67;;;20.20;41.90;;;23.10;31.64;97449.13;5007503;28;20356;-40
2022/08/22 00:09:28;;;;;;;4.50;2.55;;;20.20;41.40;;;23.06;31.41;97437.94;5007018;28;20060;-41
2022/08/22 00:12:34;;;;;;;6.43;3.10;;;20.20;41.10;;;23.05;30.94;97440.91;5006769;28;20068;-40
2022/08/22 00:15:31;;;;;;;8.45;3.42;;;20.10;40.60;;;23.06;30.93;97447.97;5006684;28;20264;-40
2022/08/22 00:18:30;;;;;;;3.53;2.72;;;20.10;40.30;;;23.05;31.09;97447.16;5007454;28;20058;-40
2022/08/22 00:21:04;;;;;;;9.15;3.65;;;20.20;40.40;;;23.05;31.34;97447.16;5006858;28;20064;-40
2022/08/22 00:23:39;;;;;;;3.20;2.72;;;20.20;41.10;;;23.07;31.24;97438.75;5006902;28;20363;-40
2022/08/22 00:26:19;;;;;;;5.70;3.42;;;20.20;40.50;;;23.08;31.21;97448.56;5006916;28;20046;-40
2022/08/22 00:29:05;;;;;;;6.85;2.97;;;20.20;40.20;;;23.07;31.07;97438.75;5006498;28;20262;-40
2022/08/22 00:31:41;;;;;;;3.95;3.17;;;20.20;40.00;;;23.07;30.99;97433.31;5005442;28;20056;-40
2022/08/22 00:34:22;;;;;;;3.80;3.03;;;20.20;40.00;;;23.05;31.06;97439.03;5006548;28;20458;-40
2022/08/22 00:37:08;;;;;;;4.20;3.03;;;20.20;40.30;;;23.04;31.17;97437.38;5005644;28;20056;-40
2022/08/22 00:39:59;;;;;;;4.55;3.22;;;20.20;40.70;;;23.02;31.02;97436.75;5007712;28;20058;-40
2022/08/22 00:43:14;;;;;;;3.83;2.90;;;20.10;40.70;;;23.00;31.09;97434.28;5008161;28;20057;-40
2022/08/22 00:46:14;;;;;;;3.50;3.00;;;20.10;41.10;;;22.95;31.25;97430.66;5007365;28;20057;-40
2022/08/22 00:49:24;;;;;;;4.85;3.60;;;20.00;41.40;;;22.91;31.83;97443.91;5005705;28;20068;-40
2022/08/22 00:52:09;;;;;;;6.50;3.75;;;20.00;42.10;;;22.88;31.87;97432.72;5006912;28;20053;-40
2022/08/22 00:55:31;;;;;;;4.63;3.58;;;20.00;41.70;;;22.82;31.63;97431.81;5006263;28;20056;-40
2022/08/22 00:58:37;;;;;;;4.82;2.97;;;20.00;42.80;;;22.84;31.82;97435.13;5015510;28;20364;-41
2022/08/22 01:01:10;;;;;;;4.13;2.80;;;19.90;43.00;;;22.79;32.11;97432.28;5005769;28;20050;-40
2022/08/22 01:03:45;;;;;;;3.63;2.55;;;19.80;42.70;;;22.74;32.42;97432.19;5006288;28;20062;-40
2022/08/22 01:06:27;;;;;;;5.32;3.55;;;19.80;43.10;;;22.67;32.56;97426.94;5006018;28;20046;-40
2022/08/22 01:09:09;;;;;;;4.88;3.33;;;19.70;43.20;;;22.64;32.28;97429.31;5006145;28;20356;-40
2022/08/22 01:12:13;;;;;;;4.05;2.90;;;19.70;43.20;;;22.60;32.60;97427.09;5009506;28;20060;-40
2022/08/22 01:14:54;;;;;;;6.22;3.25;;;19.70;43.60;;;22.61;32.42;97427.91;5010439;28;20052;-40
2022/08/22 01:17:53;;;;;;;7.03;3.83;;;19.60;43.80;;;22.56;33.04;97433.25;5009285;28;20045;-40
2022/08/22 01:21:10;;;;;;;3.50;2.78;;;19.70;43.60;;;22.51;32.79;97433.16;5009870;28;20060;-40
2022/08/22 01:24:15;;;;;;;4.28;3.75;;;19.60;44.80;;;22.50;32.87;97432.31;5009477;28;20311;-40
2022/08/22 01:27:12;;;;;;;4.00;2.88;;;19.60;44.70;;;22.47;33.15;97432.81;5010004;28;20053;-40
2022/08/22 01:29:52;;;;;;;3.78;3.17;;;19.60;45.20;;;22.45;33.57;97431.41;5009779;28;20064;-40
2022/08/22 01:32:47;;;;;;;4.38;2.63;;;19.50;44.30;;;22.42;33.64;97427.28;5009791;28;20344;-39
2022/08/22 01:36:16;;;;;;;7.55;3.33;;;19.50;44.80;;;22.40;33.33;97430.25;5010327;28;20239;-40
2022/08/22 01:39:48;;;;;;;6.07;3.10;;;19.50;45.70;;;22.36;33.07;97420.94;5007485;28;20053;-40
2022/08/22 01:43:03;;;;;;;4.78;3.13;;;19.40;45.90;;;22.28;33.34;97429.47;5008886;28;20281;-40
2022/08/22 01:46:15;;;;;;;6.38;3.05;;;19.30;45.50;;;22.25;33.43;97427.25;5010359;28;20056;-40
2022/08/22 01:49:03;;;;;;;5.93;3.38;;;19.30;45.70;;;22.25;33.60;97434.56;5009153;28;20048;-41
2022/08/22 01:51:52;;;;;;;4.40;3.17;;;19.20;44.90;;;22.26;33.06;97441.63;5009218;28;20295;-40
2022/08/22 01:54:59;;;;;;;6.03;3.25;;;19.30;44.80;;;22.20;33.52;97432.53;5010210;28;20353;-40
2022/08/22 01:57:27;;;;;;;4.82;3.15;;;19.20;45.00;;;22.17;33.63;97438.44;5008628;28;20064;-40
2022/08/22 02:00:06;;;;;;;6.82;3.50;;;19.20;45.20;;;22.12;34.25;97435.63;5007712;28;20060;-40
2022/08/22 02:03:06;;;;;;;7.20;3.85;;;19.20;45.90;;;22.09;34.17;97436.94;5009818;28;20046;-40
2022/08/22 02:05:47;;;;;;;6.38;3.63;;;19.10;46.20;;;22.07;34.39;97432.81;5009446;28;20051;-40
2022/08/22 02:08:48;;;;;;;5.95;3.30;;;19.10;46.20;;;22.08;34.46;97438.00;5007928;28;20059;-40
2022/08/22 02:11:51;;;;;;;3.95;3.03;;;19.10;46.30;;;22.07;33.92;97440.94;5009108;28;20061;-40
2022/08/22 02:14:31;;;;;;;7.32;3.45;;;19.10;46.60;;;22.06;33.92;97440.09;5008844;28;20064;-40
2022/08/22 02:17:28;;;;;;;5.28;4.20;;;19.10;46.20;;;21.97;33.97;97436.97;5009363;28;20042;-40
2022/08/22 02:20:23;;;;;;;7.28;3.35;;;19.00;45.70;;;21.94;33.84;97433.91;5024753;28;20263;-40
2022/08/22 02:23:16;;;;;;;4.70;3.03;;;19.00;45.40;;;21.92;33.84;97442.28;5008172;28;20411;-40
2022/08/22 02:25:52;;;;;;;4.10;3.22;;;19.00;45.50;;;21.89;33.98;97445.47;5009121;28;20060;-41
2022/08/22 02:28:51;;;;;;;5.40;3.38;;;19.00;45.40;;;21.85;33.97;97438.88;5008384;28;20073;-41
2022/08/22 02:32:08;;;;;;;5.32;3.20;;;19.00;45.80;;;21.85;33.65;97436.19;5008638;28;20045;-42
2022/08/22 02:34:47;;;;;;;4.78;3.55;;;18.90;45.70;;;21.82;33.90;97440.16;5008912;28;20080;-42
2022/08/22 02:37:38;;;;;;;5.03;3.22;;;18.90;45.70;;;21.74;34.18;97435.13;5007696;28;20065;-38
2022/08/22 02:40:44;;;;;;;5.43;3.20;;;18.80;46.00;;;21.68;34.00;97424.44;5007800;28;20052;-41
2022/08/22 02:43:47;;;;;;;4.47;3.65;;;18.70;46.80;;;21.60;34.21;97425.63;5007536;28;20060;-41
2022/08/22 02:46:29;;;;;;;7.07;3.55;;;18.60;46.60;;;21.55;34.83;97425.50;5008588;28;20288;-41
2022/08/22 02:49:15;;;;;;;6.35;3.63;;;18.50;47.30;;;21.52;34.89;97425.94;5008659;28;20248;-41
2022/08/22 02:52:18;;;;;;;4.65;3.20;;;18.50;47.30;;;21.47;34.74;97420.44;5008095;28;20050;-41
2022/08/22 02:55:33;;;;;;;5.47;2.67;;;18.50;47.60;;;21.47;34.93;97425.84;5007445;28;20052;-41
2022/08/22 02:58:03;;;;;;;;;;;18.50;48.10;;;21.53;34.75;97417.59;5006894;28;20396;-40
2022/08/22 03:00:57;;;;;;;5.40;3.00;;;18.30;49.90;;;21.39;34.90;97414.28;5008737;28;19925;-41
2022/08/22 03:03:35;;;;;;;3.65;2.78;;;18.30;48.70;;;21.28;35.27;97417.81;5006062;28;20049;-41
2022/08/22 03:06:42;;;;;;;4.18;3.78;;;18.20;48.50;;;21.20;35.54;97413.56;5006026;28;20063;-41
2022/08/22 03:09:13;;;;;;;5.22;3.33;;;18.10;48.50;;;21.16;35.82;97415.09;5005872;28;20072;-41
2022/08/22 03:11:56;;;;;;;3.90;2.95;;;18.10;49.00;;;21.11;35.80;97406.88;5006813;28;20156;-40
2022/08/22 03:14:42;;;;;;;;;;;18.10;49.10;;;21.22;35.23;97413.34;5007360;28;20054;-41
2022/08/22 03:17:23;;;;;;;6.47;3.47;;;18.00;49.80;;;21.14;35.50;97413.69;5039456;28;19923;-41
2022/08/22 03:20:14;;;;;;;4.15;2.90;;;18.00;49.10;;;21.03;35.59;97408.06;5008454;28;20057;-41
2022/08/22 03:22:58;;;;;;;4.32;3.70;;;17.90;49.60;;;20.96;35.82;97407.31;5006642;28;20061;-41
2022/08/22 03:25:44;;;;;;;4.40;3.10;;;17.90;49.60;;;20.94;36.05;97403.22;5005455;28;20054;-41
2022/08/22 03:28:25;;;;;;;4.90;3.00;;;17.90;49.90;;;20.92;36.04;97411.56;5008101;28;20080;-40
2022/08/22 03:31:13;;;;;;;5.55;3.08;;;17.90;49.50;;;20.90;36.21;97405.56;5006269;28;20256;-40
2022/08/22 03:33:41;;;;;;;4.88;3.20;;;17.90;50.10;;;20.87;36.14;97413.31;5003306;28;20056;-41
2022/08/22 03:36:25;;;;;;;5.45;3.40;;;17.80;49.30;;;20.86;36.12;97409.78;5006233;28;20388;-41
2022/08/22 03:39:34;;;;;;;5.22;3.35;;;17.80;49.80;;;20.85;36.17;97405.41;5008062;28;20079;-41
2022/08/22 03:42:54;;;;;;;4.63;3.33;;;17.80;49.80;;;20.82;36.21;97416.69;5007362;28;20251;-41
2022/08/22 03:46:28;;;;;;;4.68;3.05;;;17.80;49.90;;;20.80;36.32;97408.84;4999543;28;20053;-41
2022/08/22 03:49:10;;;;;;;5.63;3.45;;;17.80;50.50;;;20.78;36.18;97408.25;5005733;28;20060;-41
2022/08/22 03:52:22;;;;;;;6.43;3.80;;;17.70;50.20;;;20.76;36.31;97414.94;5007120;28;20056;-41
2022/08/22 03:54:59;;;;;;;6.60;3.25;;;17.80;50.30;;;20.76;36.47;97415.78;5007829;28;20053;-41
2022/08/22 03:58:19;;;;;;;3.65;3.13;;;17.80;49.30;;;20.74;36.33;97422.44;5007088;28;20065;-41
2022/08/22 04:01:28;;;;;;;6.70;3.67;;;17.80;50.50;;;20.77;36.62;97422.00;5006937;28;20052;-39
2022/08/22 04:04:22;;;;;;;4.80;2.78;;;17.80;49.80;;;20.72;36.57;97425.38;5006443;28;20368;-41
2022/08/22 04:07:15;;;;;;;6.97;4.00;;;17.80;49.50;;;20.70;36.58;97430.19;5006134;28;20069;-41
2022/08/22 04:10:24;;;;;;;4.63;3.03;;;17.70;50.50;;;20.65;36.64;97433.59;5007285;28;20052;-41
2022/08/22 04:13:49;;;;;;;5.47;3.47;;;17.70;50.70;;;20.61;36.73;97435.13;5007780;28;20076;-41
2022/08/22 04:17:00;;;;;;;5.70;3.75;;;17.70;50.60;;;20.61;36.63;97434.31;5007521;28;20064;-41
2022/08/22 04:20:15;;;;;;;5.03;3.85;;;17.60;51.00;;;20.54;37.04;97447.88;5006173;28;20344;-41
2022/08/22 04:22:52;;;;;;;5.03;3.30;;;17.60;51.70;;;20.50;37.42;97440.47;5006003;28;20580;-41
2022/08/22 04:25:39;;;;;;;5.88;3.75;;;17.50;51.40;;;20.43;37.21;97444.09;5007761;28;20515;-41
2022/08/22 04:28:38;;;;;;;3.65;3.05;;;17.40;51.50;;;20.39;37.21;97439.34;5006013;28;20312;-41
2022/08/22 04:31:20;;;;;;;4.90;3.40;;;17.40;51.90;;;20.35;37.67;97441.69;5005233;28;20048;-41
2022/08/22 04:34:15;;;;;;;7.93;3.60;;;17.40;52.10;;;20.33;37.43;97442.97;5005531;28;20121;-41
2022/08/22 04:36:47;;;;;;;7.75;3.88;;;17.30;52.40;;;20.31;37.81;97445.91;5005748;28;20049;-41
2022/08/22 04:39:33;;;;;;;6.55;5.40;;;17.30;52.00;;;20.29;37.98;97441.78;5005530;28;20057;-40
2022/08/22 04:42:29;;;;;;;5.93;3.83;;;17.30;51.90;;;20.33;38.17;97449.19;5006049;28;20058;-40
2022/08/22 04:45:22;;;;;;;7.47;3.85;;;17.40;52.00;;;20.34;37.90;97445.47;5004225;28;20061;-41
2022/08/22 04:48:31;;;;;;;6.13;3.72;;;17.40;52.60;;;20.29;38.10;97452.59;5009455;28;20061;-40
2022/08/22 04:51:21;;;;;;;5.85;4.10;;;17.30;53.30;;;20.25;38.17;97447.63;5010912;28;20240;-40
2022/08/22 04:54:23;;;;;;;4.22;3.55;;;17.20;52.90;;;20.24;38.07;97446.00;5010996;28;20068;-40
2022/08/22 04:57:23;;;;;;;6.18;3.60;;;17.30;53.00;;;20.26;38.02;97448.50;5011175;28;20061;-40
2022/08/22 04:59:56;;;;;;;6.43;3.75;;;17.30;53.10;;;20.27;38.19;97445.53;5010039;28;20259;-40
2022/08/22 05:02:26;;;;;;;8.13;4.03;;;17.30;52.20;;;20.30;38.29;97449.69;5008957;28;20050;-41
2022/08/22 05:05:09;;;;;;;5.97;4.00;;;17.40;52.10;;;20.34;38.23;97452.75;5011165;28;20049;-41
2022/08/22 05:07:47;;;;;;;5.78;3.72;;;17.50;52.70;;;20.36;38.25;97453.34;5009781;28;20244;-40
2022/08/22 05:10:26;;;;;;;7.50;3.35;;;17.50;52.50;;;20.37;38.44;97458.50;5010549;28;20053;-41
2022/08/22 05:13:14;;;;;;;11.60;4.15;;;17.50;52.70;;;20.41;38.33;97453.47;5010828;28;20351;-40
2022/08/22 05:15:53;;;;;;;6.68;4.43;;;17.50;52.40;;;20.41;38.19;97461.56;5011018;28;20050;-38
2022/08/22 05:18:34;;;;;;;6.65;4.95;;;17.50;52.60;;;20.40;38.28;97459.94;5008499;28;20046;-40
2022/08/22 05:21:07;;;;;;;6.53;5.13;;;17.50;52.90;;;20.38;38.78;97459.34;5009822;28;20054;-38
2022/08/22 05:26:43;;;;;;;6.68;5.07;;;17.40;53.00;;;20.37;38.60;97457.69;5008677;28;20045;-39
2022/08/22 05:29:15;;;;;;;9.98;4.32;;;17.40;52.90;;;20.35;38.70;97460.63;4992902;28;20049;-39
2022/08/22 05:32:08;;;;;;;8.20;4.60;;;17.50;52.80;;;20.41;38.85;97467.84;5009199;28;20352;-39
2022/08/22 05:34:40;;;;;;;9.32;4.63;;;17.60;53.20;;;20.43;38.77;97465.72;5006535;28;20379;-39
2022/08/22 05:37:24;;;;;;;5.65;5.03;;;17.60;52.90;;;20.44;38.77;97475.47;5007819;28;20068;-39
2022/08/22 05:39:59;;;;;;;12.05;4.60;;;17.60;53.10;;;20.45;38.71;97471.72;5008748;28;20344;-39
2022/08/22 05:42:32;;;;;;;6.28;4.28;;;17.60;52.80;;;20.47;38.65;97463.34;5010776;28;20061;-39
2022/08/22 05:45:05;;;;;;;5.15;4.05;;;17.60;52.50;;;20.50;38.63;97470.22;5011180;28;20054;-39
2022/08/22 05:47:45;;;;;;;6.78;4.25;;;17.70;52.70;;;20.51;38.93;97463.72;5009180;28;20060;-39
2022/08/22 05:50:37;;;;;;;6.82;3.88;;;17.70;52.80;;;20.56;38.87;97462.00;4992433;28;20042;-39
2022/08/22 05:53:17;;;;;;;6.32;3.72;;;17.80;52.90;;;20.61;38.61;97472.19;5008632;28;20076;-38
2022/08/22 05:55:57;;;;;;;5.50;4.05;;;17.80;52.80;;;20.65;38.99;97463.34;5008597;28;20061;-39
2022/08/22 05:58:55;;;;;;;16.88;4.95;;;17.90;52.70;;;20.74;38.83;97468.44;5007734;28;20046;-39
2022/08/22 06:01:53;;;;;;;4.95;4.45;;;18.00;54.20;;;20.81;39.06;97469.16;5007837;28;20060;-38
2022/08/22 06:04:44;;;;;;;7.18;3.97;;;18.10;54.30;;;20.88;39.22;97467.19;5008178;28;20054;-38
2022/08/22 06:07:24;;;;;;;12.98;4.72;;;18.10;54.10;;;20.92;39.38;97468.38;5009656;28;20356;-38
2022/08/22 06:10:07;;;;;;;8.35;4.45;;;18.10;53.50;;;20.96;39.35;97460.63;5008457;28;20053;-39
2022/08/22 06:12:46;;;;;;;9.80;4.28;;;18.20;54.40;;;20.98;39.03;97463.94;5010013;28;20052;-38
2022/08/22 06:15:27;;;;;;;10.82;5.43;;;18.30;53.10;;;21.00;39.01;97465.34;5008650;28;20428;-38
2022/08/22 06:18:11;;;;;;;6.78;4.28;;;18.30;52.90;;;21.09;38.91;97462.28;5007918;28;20049;-38
2022/08/22 06:20:54;;;;;;;6.50;3.97;;;18.40;52.70;;;21.13;38.86;97466.16;5008305;28;20054;-39
2022/08/22 06:23:57;;;;;;;5.60;3.88;;;18.40;52.30;;;21.19;39.00;97462.53;5008802;28;20053;-39
2022/08/22 06:26:34;;;;;;;6.57;4.38;;;18.50;52.30;;;21.23;38.61;97469.13;5007617;28;20061;-38
2022/08/22 06:29:06;;;;;;;5.47;3.80;;;18.50;52.00;;;21.27;38.62;97472.19;5008603;28;20053;-38
2022/08/22 06:31:47;;;;;;;8.40;4.93;;;18.60;51.80;;;21.33;38.70;97469.38;5008281;28;20298;-39
2022/08/22 06:34:32;;;;;;;6.25;4.53;;;18.70;52.10;;;21.42;38.75;97467.97;5006349;28;20057;-38
2022/08/22 06:37:06;;;;;;;8.48;3.53;;;18.80;52.00;;;21.52;38.73;97472.00;5008786;28;20256;-39
2022/08/22 06:39:40;;;;;;;11.10;4.50;;;18.90;52.00;;;21.57;39.05;97475.63;5007866;28;20053;-39
2022/08/22 06:42:18;;;;;;;7.18;4.03;;;19.00;52.30;;;21.67;39.27;97479.66;5007567;28;20053;-39
2022/08/22 06:44:59;;;;;;;8.07;4.63;;;19.00;52.60;;;21.71;39.44;97481.63;5007915;28;20053;-39
2022/08/22 06:48:06;;;;;;;7.32;4.60;;;19.10;53.10;;;21.80;39.35;97485.66;5006587;28;20041;-39
2022/08/22 06:50:40;;;;;;;6.63;4.22;;;19.20;53.70;;;21.86;39.25;97488.47;5005745;28;20313;-39
2022/08/22 06:53:22;;;;;;;6.50;4.97;;;19.20;53.10;;;21.91;39.74;97486.69;5007650;28;20264;-38
2022/08/22 06:55:56;;;;;;;6.97;4.47;;;19.30;53.90;;;21.95;39.87;97485.16;5009369;28;20077;-38
2022/08/22 06:58:36;;;;;;;6.63;4.55;;;19.30;53.40;;;22.00;39.36;97487.16;5007824;28;20064;-39
2022/08/22 07:01:12;;;;;;;7.65;4.75;;;19.40;53.40;;;22.06;39.68;97496.22;5007485;28;20050;-39
2022/08/22 07:03:49;;;;;;;6.70;4.30;;;19.40;53.60;;;22.12;39.45;97506.09;5006962;28;20344;-38
2022/08/22 07:06:33;;;;;;;6.70;4.95;;;19.50;53.70;;;22.16;39.56;97493.75;5008788;28;20049;-39
2022/08/22 07:09:04;;;;;;;7.60;5.53;;;19.50;53.50;;;22.19;39.58;97494.06;5006794;28;20060;-39
2022/08/22 07:11:40;;;;;;;7.78;5.80;;;19.60;53.40;;;22.22;39.38;97498.19;5006475;28;20385;-39
2022/08/22 07:14:14;;;;;;;7.72;5.00;;;19.60;53.70;;;22.24;40.01;97498.78;5007796;28;20049;-39
2022/08/22 07:16:53;;;;;;;;;;;19.60;53.50;;;22.47;39.23;97491.66;5008787;28;20062;-39
2022/08/22 07:19:31;;;;;;;7.47;4.80;;;19.70;54.10;;;22.47;39.28;97492.50;5036899;28;19932;-40
2022/08/22 07:22:20;;;;;;;5.70;4.78;;;19.70;53.50;;;22.47;39.59;97495.22;5007644;28;20239;-39
2022/08/22 07:25:01;;;;;;;8.05;4.65;;;19.80;53.10;;;22.52;38.99;97495.28;5008803;28;20049;-40
2022/08/22 07:28:19;;;;;;;7.38;4.75;;;19.90;53.30;;;22.57;39.01;97498.09;5007639;28;20244;-39
2022/08/22 07:31:24;;;;;;;6.90;4.60;;;19.90;53.20;;;22.63;39.27;97493.59;5023937;28;20049;-39
2022/08/22 07:34:46;;;;;;;12.48;5.25;;;20.00;53.30;;;22.67;39.29;97493.94;5006623;28;20050;-39
2022/08/22 07:37:43;;;;;;;6.55;4.80;;;20.00;53.20;;;22.72;39.24;97496.75;5007456;28;20061;-39
2022/08/22 07:40:26;;;;;;;8.45;4.72;;;20.00;53.10;;;22.76;39.04;97498.75;5007114;28;20287;-40
2022/08/22 07:43:12;;;;;;;14.95;5.53;;;20.10;53.30;;;22.80;39.24;97499.91;5006829;28;20064;-41
2022/08/22 07:45:51;;;;;;;7.75;4.88;;;20.20;53.70;;;22.84;39.03;97502.97;5006984;28;20053;-39
2022/08/22 07:48:35;;;;;;;7.65;5.63;;;20.30;52.80;;;22.89;39.21;97503.03;5006725;28;20267;-40
2022/08/22 07:51:34;;;;;;;6.78;4.80;;;20.30;52.60;;;22.98;38.95;97500.75;5007076;28;20080;-40
2022/08/22 07:54:10;;;;;;;8.20;5.10;;;20.30;52.40;;;22.97;38.89;97502.66;5007430;28;20050;-39
2022/08/22 07:57:06;;;;;;;7.32;5.05;;;20.40;52.20;;;23.04;38.91;97502.53;5006181;28;20244;-39
2022/08/22 07:59:47;;;;;;;6.93;5.43;;;20.50;52.00;;;23.11;38.84;97503.19;5006186;28;20072;-40
2022/08/22 08:02:17;;;;;;;6.40;5.20;;;20.50;53.10;;;23.13;39.28;97519.25;5004935;28;20056;-40
2022/08/22 08:04:49;;;;;;;8.82;5.57;;;20.60;52.30;;;23.19;39.50;97518.25;5006515;28;20045;-40
2022/08/22 08:07:24;;;;;;;8.20;4.70;;;20.70;52.50;;;23.25;39.20;97516.47;5004493;28;20042;-40
2022/08/22 08:10:07;;;;;;;8.93;4.95;;;20.70;52.30;;;23.32;38.77;97522.53;5007297;28;20061;-40
2022/08/22 08:12:50;;;;;;;10.15;4.75;;;20.80;52.20;;;23.37;39.14;97526.16;5006713;28;20056;-39
2022/08/22 08:15:34;;;;;;;11.52;4.88;;;20.80;52.50;;;23.46;39.08;97517.59;5006147;28;20046;-40
2022/08/22 08:18:18;;;;;;;13.32;6.90;;;20.90;52.60;;;23.52;39.28;97512.00;5004786;28;20054;-40
2022/08/22 08:20:58;;;;;;;8.48;5.38;;;21.00;52.80;;;23.60;38.81;97516.19;5005181;28;20064;-40
2022/08/22 08:23:33;;;;;;;6.32;4.40;;;21.10;52.30;;;23.64;39.05;97511.91;5005971;28;20042;-40
2022/08/22 08:26:23;;;;;;;6.40;4.60;;;21.10;51.90;;;23.71;38.54;97514.44;5006419;28;20056;-41
2022/08/22 08:28:56;;;;;;;6.25;5.28;;;21.20;51.30;;;23.75;38.53;97519.16;5005619;28;20076;-40
2022/08/22 08:31:37;;;;;;;9.02;5.35;;;21.20;51.10;;;23.84;38.24;97516.03;5006139;28;20045;-40
2022/08/22 08:34:21;;;;;;;6.57;4.90;;;21.30;50.80;;;23.87;38.01;97524.50;5006727;28;20116;-40
2022/08/22 08:37:15;;;;;;;6.45;4.10;;;21.30;50.50;;;23.93;37.92;97525.41;5006895;28;20049;-40
2022/08/22 08:39:52;;;;;;;9.40;4.30;;;21.40;50.30;;;24.01;37.61;97519.53;5002026;28;20057;-40
2022/08/22 08:43:38;;;;;;;7.38;4.60;;;21.50;49.60;;;24.07;37.57;97518.53;5007124;28;20050;-39
2022/08/22 08:46:38;;;;;;;9.85;3.97;;;21.50;50.00;;;24.18;37.65;97516.78;5007068;28;20378;-40
2022/08/22 08:49:25;;;;;;;6.40;4.28;;;21.70;49.60;;;24.28;37.36;97514.19;5006957;28;20382;-39
2022/08/22 08:55:44;;;;;;;22.60;4.90;;;21.80;48.40;;;24.42;36.59;97514.63;5006854;28;20049;-40
2022/08/22 08:58:50;;;;;;;5.22;4.00;;;21.90;48.50;;;24.48;36.69;97512.78;5007617;28;20050;-39
2022/08/22 09:02:24;;;;;;;4.80;4.30;;;22.00;47.50;;;24.57;36.55;97505.88;5005546;28;20068;-40
2022/08/22 09:05:39;;;;;;;6.35;3.47;;;22.00;47.70;;;24.65;36.47;97504.59;5006788;28;20057;-40
2022/08/22 09:08:29;;;;;;;5.60;4.03;;;22.10;47.30;;;24.70;36.24;97508.19;5007497;28;20054;-40
2022/08/22 09:11:34;;;;;;;4.97;3.75;;;22.20;47.10;;;24.75;36.21;97510.13;5003120;28;20046;-40
2022/08/22 09:14:35;;;;;;;5.32;4.25;;;22.30;47.40;;;24.82;35.93;97508.03;5007193;28;20356;-40
2022/08/22 09:17:28;;;;;;;6.75;3.67;;;22.30;45.60;;;24.89;35.78;97502.38;5005708;28;20049;-39
2022/08/22 09:20:07;;;;;;;6.45;3.92;;;22.40;45.70;;;24.98;35.99;97510.91;5002499;28;20062;-40
2022/08/22 09:23:22;;;;;;;6.57;3.80;;;22.50;47.20;;;25.05;36.21;97504.19;5005557;28;20255;-40
2022/08/22 09:26:16;;;;;;;5.90;3.70;;;22.60;47.20;;;25.13;36.13;97508.34;5005017;28;20064;-40
2022/08/22 09:28:58;;;;;;;6.15;3.95;;;22.70;47.70;;;25.21;35.88;97509.78;5004669;28;20348;-40
2022/08/22 09:31:35;;;;;;;6.00;3.85;;;22.70;47.00;;;25.24;35.44;97504.66;5007093;28;20064;-39
2022/08/22 09:34:39;;;;;;;4.45;3.75;;;22.80;46.80;;;25.28;35.24;97508.50;5010913;28;20504;-39
2022/08/22 09:37:35;;;;;;;4.53;3.30;;;22.80;46.20;;;25.36;35.04;97509.94;5007828;28;20046;-40
2022/08/22 09:40:27;;;;;;;5.07;3.75;;;22.80;45.00;;;25.44;35.02;97497.75;5009661;28;20045;-40
2022/08/22 09:43:20;;;;;;;4.25;3.85;;;23.00;45.20;;;25.50;35.15;97508.41;5008596;28;20054;-40
2022/08/22 09:46:20;;;;;;;5.45;3.75;;;23.00;45.50;;;25.57;35.21;97502.75;4994330;28;20061;-40
2022/08/22 09:49:05;;;;;;;4.38;3.88;;;23.10;45.60;;;25.63;35.07;97506.31;4989796;28;20058;-40
2022/08/22 09:52:13;;;;;;;5.07;4.18;;;23.10;45.60;;;25.69;35.17;97513.47;4988808;28;20375;-39
2022/08/22 09:55:18;;;;;;;7.60;4.43;;;23.20;45.70;;;25.82;35.27;97512.16;4989924;28;20060;-40
2022/08/22 09:58:42;;;;;;;5.40;4.63;;;23.30;45.80;;;25.87;35.02;97510.28;4989546;28;20054;-40
2022/08/22 10:01:52;;;;;;;4.68;3.75;;;23.40;45.30;;;25.96;34.57;97509.81;4989462;28;20062;-40
2022/08/22 10:05:11;;;;;;;6.78;4.10;;;23.50;45.30;;;26.05;34.82;97511.78;4990153;28;20054;-39
2022/08/22 10:07:59;;;;;;;4.43;3.70;;;23.60;45.20;;;26.13;34.00;97514.03;4990013;28;20790;-40
2022/08/22 10:11:01;;;;;;;8.63;3.78;;;23.60;44.70;;;26.15;33.97;97516.47;4989762;28;20065;-45
2022/08/22 10:13:41;;;;;;;3.85;3.05;;;23.70;42.60;;;26.21;33.58;97509.97;4988621;28;20049;-40
2022/08/22 10:16:25;;;;;;;4.35;3.70;;;23.80;42.50;;;26.25;33.73;97500.19;4990374;28;20064;-40
2022/08/22 10:19:30;;;;;;;;;;;23.80;43.30;;;26.50;33.54;97501.34;4988693;28;20062;-40
2022/08/22 10:22:57;;;;;;;4.78;3.25;;;23.80;42.10;;;26.46;33.54;97494.78;4990057;28;19924;-40
2022/08/22 10:25:47;;;;;;;4.60;4.20;;;23.90;43.30;;;26.52;34.29;97493.69;4989866;28;20264;-40
2022/08/22 10:28:46;;;;;;;5.50;4.00;;;24.00;44.10;;;26.55;33.85;97490.44;4989495;28;20061;-40
2022/08/22 10:31:39;;;;;;;5.38;4.07;;;24.00;43.80;;;26.53;33.10;97482.53;4989083;28;20733;-40
2022/08/22 10:34:37;;;;;;;6.47;4.03;;;24.10;42.90;;;26.63;33.42;97483.69;4989501;28;20276;-40
2022/08/22 10:37:14;;;;;;;5.65;4.13;;;24.20;43.50;;;26.69;33.62;97482.59;4987633;28;20455;-40
2022/08/22 10:40:00;;;;;;;4.05;3.60;;;24.20;42.70;;;26.77;33.28;97479.34;5005036;28;20248;-40
2022/08/22 10:42:40;;;;;;;6.75;3.83;;;24.40;42.20;;;26.84;32.81;97470.91;4987602;28;20052;-43
2022/08/22 10:45:52;;;;;;;7.35;4.45;;;24.40;42.30;;;26.95;33.16;97469.81;4988665;28;20629;-40
2022/08/22 10:49:10;;;;;;;7.93;4.05;;;24.60;42.00;;;27.07;31.81;97464.09;4987681;28;20065;-40
2022/08/22 10:51:55;;;;;;;6.60;3.78;;;24.60;39.60;;;27.13;31.10;97464.91;4987555;28;20077;-40
2022/08/22 10:54:52;;;;;;;4.28;3.88;;;24.70;39.00;;;27.16;31.50;97469.81;4989470;28;20050;-40
2022/08/22 10:57:50;;;;;;;4.60;3.85;;;24.80;38.60;;;27.21;31.90;97459.72;4987845;28;20068;-40
2022/08/22 11:00:45;;;;;;;5.45;4.15;;;24.80;40.00;;;27.33;32.00;97464.13;4987859;28;20332;-40
2022/08/22 11:03:42;;;;;;;5.50;3.55;;;24.90;40.10;;;27.42;31.30;97459.75;4989104;28;20068;-40
2022/08/22 11:06:24;;;;;;;4.72;4.03;;;25.00;39.50;;;27.50;31.09;97460.00;4988118;28;20052;-40
2022/08/22 11:09:16;;;;;;;3.42;3.13;;;25.10;38.20;;;27.53;30.42;97455.06;4987364;28;20056;-39
2022/08/22 11:11:58;;;;;;;5.15;3.40;;;25.10;38.60;;;27.58;30.33;97449.59;4989587;28;20052;-40
2022/08/22 11:14:30;;;;;;;3.88;3.47;;;25.20;38.20;;;27.64;30.06;97453.97;4986538;28;20093;-39
2022/08/22 11:17:17;;;;;;;4.57;4.07;;;25.20;37.80;;;27.71;29.92;97449.03;4988099;28;20064;-40
2022/08/22 11:20:08;;;;;;;5.10;3.60;;;25.30;37.90;;;27.76;29.35;97448.19;4987834;28;20060;-40
2022/08/22 11:23:06;;;;;;;5.32;3.65;;;25.30;37.10;;;27.72;29.13;97450.66;4989504;28;20064;-40
2022/08/22 11:25:44;;;;;;;6.57;3.75;;;25.30;35.60;;;27.71;29.26;97450.97;4988423;28;20049;-40
2022/08/22 11:28:44;;;;;;;4.18;3.78;;;25.20;36.50;;;27.72;29.36;97441.66;4987987;28;20050;-40
2022/08/22 11:31:34;;;;;;;4.20;3.72;;;25.20;36.00;;;27.76;29.46;97443.56;4988170;28;20308;-40
2022/08/22 11:34:45;;;;;;;5.68;3.42;;;25.30;36.70;;;27.80;28.86;97435.59;4987775;28;20050;-40
2022/08/22 11:37:42;;;;;;;4.85;3.60;;;25.40;34.50;;;27.87;28.82;97438.88;4987053;28;20054;-40
2022/08/22 11:40:18;;;;;;;5.28;3.47;;;25.50;35.00;;;27.91;28.89;97430.97;4987390;28;20062;-40
2022/08/22 11:42:56;;;;;;;7.70;3.55;;;25.60;36.10;;;27.99;28.28;97431.19;4987400;28;20054;-40
2022/08/22 11:45:36;;;;;;;4.82;3.72;;;25.70;35.40;;;28.10;28.52;97433.91;4989298;28;20237;-40
2022/08/22 11:48:44;;;;;;;6.13;3.90;;;25.80;35.40;;;28.19;27.83;97426.72;4987192;28;20048;-40
2022/08/22 11:51:33;;;;;;;4.28;3.85;;;26.00;33.80;;;28.31;27.67;97429.16;4987829;28;20048;-40
2022/08/22 11:54:27;;;;;;;6.78;4.00;;;26.10;35.00;;;28.32;27.35;97420.66;4988882;28;20068;-40
2022/08/22 11:57:22;;;;;;;4.53;3.28;;;26.20;33.20;;;28.41;27.13;97418.97;4988178;28;20084;-40
2022/08/22 12:00:12;;;;;;;5.28;3.45;;;26.30;32.70;;;28.49;26.91;97428.50;4987455;28;20074;-40
2022/08/22 12:02:58;;;;;;;4.60;3.38;;;26.40;32.50;;;28.52;26.71;97421.66;4988003;28;20349;-40
2022/08/22 12:05:43;;;;;;;3.70;3.40;;;26.50;32.70;;;28.64;26.64;97420.22;4986592;28;20057;-40